sensor_id;sensor_type;location;lat;lon;timestamp;P1;durP1;ratioP1;P2;durP2;ratioP2
48034;SDS011;33812;46.480;6.834;2023-04-06T00:00:16;6.43;;;2.00;;
48034;SDS011;33812;46.480;6.834;2023-04-06T00:04:19;4.68;;;1.60;;
48034;SDS011;33812;46.480;6.834;2023-04-06T00:08:22;8.70;;;2.50;;
48034;SDS011;33812;46.480;6.834;2023-04-06T00:12:31;8.25;;;2.20;;
48034;SDS011;33812;46.480;6.834;2023-04-06T00:16:36;7.53;;;2.05;;
48034;SDS011;33812;46.480;6.834;2023-04-06T00:20:38;7.28;;;2.15;;
48034;SDS011;33812;46.480;6.834;2023-04-06T00:24:42;7.90;;;2.28;;
48034;SDS011;33812;46.480;6.834;2023-04-06T00:28:45;9.23;;;2.40;;
48034;SDS011;33812;46.480;6.834;2023-04-06T00:32:52;10.70;;;2.50;;
48034;SDS011;33812;46.480;6.834;2023-04-06T00:36:54;7.38;;;2.28;;
48034;SDS011;33812;46.480;6.834;2023-04-06T00:40:57;7.82;;;1.98;;
48034;SDS011;33812;46.480;6.834;2023-04-06T00:45:00;5.50;;;1.70;;
48034;SDS011;33812;46.480;6.834;2023-04-06T00:49:05;6.93;;;1.92;;
48034;SDS011;33812;46.480;6.834;2023-04-06T00:53:07;8.23;;;2.03;;
48034;SDS011;33812;46.480;6.834;2023-04-06T00:57:10;7.60;;;2.13;;
48034;SDS011;33812;46.480;6.834;2023-04-06T01:01:14;9.63;;;2.33;;
48034;SDS011;33812;46.480;6.834;2023-04-06T01:05:18;6.38;;;1.83;;
48034;SDS011;33812;46.480;6.834;2023-04-06T01:09:22;7.13;;;2.20;;
48034;SDS011;33812;46.480;6.834;2023-04-06T01:13:25;5.82;;;1.95;;
48034;SDS011;33812;46.480;6.834;2023-04-06T01:17:28;4.53;;;1.70;;
48034;SDS011;33812;46.480;6.834;2023-04-06T01:21:37;9.38;;;2.58;;
48034;SDS011;33812;46.480;6.834;2023-04-06T01:29:48;3.58;;;1.42;;
48034;SDS011;33812;46.480;6.834;2023-04-06T01:33:50;12.90;;;2.90;;
48034;SDS011;33812;46.480;6.834;2023-04-06T01:37:53;8.48;;;2.42;;
48034;SDS011;33812;46.480;6.834;2023-04-06T01:41:59;7.35;;;2.00;;
48034;SDS011;33812;46.480;6.834;2023-04-06T01:46:01;7.63;;;1.92;;
48034;SDS011;33812;46.480;6.834;2023-04-06T01:50:03;9.02;;;1.92;;
48034;SDS011;33812;46.480;6.834;2023-04-06T01:54:07;10.35;;;2.28;;
48034;SDS011;33812;46.480;6.834;2023-04-06T01:58:16;4.53;;;1.52;;
48034;SDS011;33812;46.480;6.834;2023-04-06T02:02:20;8.63;;;2.22;;
48034;SDS011;33812;46.480;6.834;2023-04-06T02:06:23;8.53;;;2.50;;
48034;SDS011;33812;46.480;6.834;2023-04-06T02:10:29;6.07;;;1.90;;
48034;SDS011;33812;46.480;6.834;2023-04-06T02:18:37;7.05;;;2.22;;
48034;SDS011;33812;46.480;6.834;2023-04-06T02:22:40;9.63;;;2.28;;
48034;SDS011;33812;46.480;6.834;2023-04-06T02:26:44;9.25;;;2.35;;
48034;SDS011;33812;46.480;6.834;2023-04-06T02:30:48;9.88;;;2.88;;
48034;SDS011;33812;46.480;6.834;2023-04-06T02:34:50;5.17;;;1.83;;
48034;SDS011;33812;46.480;6.834;2023-04-06T02:38:52;13.93;;;3.15;;
48034;SDS011;33812;46.480;6.834;2023-04-06T02:42:54;6.10;;;1.92;;
48034;SDS011;33812;46.480;6.834;2023-04-06T02:46:59;5.18;;;1.92;;
48034;SDS011;33812;46.480;6.834;2023-04-06T02:51:03;9.10;;;2.20;;
48034;SDS011;33812;46.480;6.834;2023-04-06T02:55:08;10.43;;;2.50;;
48034;SDS011;33812;46.480;6.834;2023-04-06T02:59:11;7.88;;;2.25;;
48034;SDS011;33812;46.480;6.834;2023-04-06T03:03:15;3.40;;;1.50;;
48034;SDS011;33812;46.480;6.834;2023-04-06T03:07:18;5.55;;;1.80;;
48034;SDS011;33812;46.480;6.834;2023-04-06T03:11:28;3.92;;;1.52;;
48034;SDS011;33812;46.480;6.834;2023-04-06T03:15:31;10.10;;;2.17;;
48034;SDS011;33812;46.480;6.834;2023-04-06T03:19:34;10.35;;;2.35;;
48034;SDS011;33812;46.480;6.834;2023-04-06T03:23:36;7.50;;;2.25;;
48034;SDS011;33812;46.480;6.834;2023-04-06T03:27:38;4.93;;;1.75;;
48034;SDS011;33812;46.480;6.834;2023-04-06T03:55:34;5.63;;;1.60;;
48034;SDS011;33812;46.480;6.834;2023-04-06T03:59:39;4.68;;;1.42;;
48034;SDS011;33812;46.480;6.834;2023-04-06T04:03:42;2.95;;;1.40;;
48034;SDS011;33812;46.480;6.834;2023-04-06T04:07:45;3.05;;;1.40;;
48034;SDS011;33812;46.480;6.834;2023-04-06T04:11:49;8.15;;;2.33;;
48034;SDS011;33812;46.480;6.834;2023-04-06T04:15:52;2.75;;;1.30;;
48034;SDS011;33812;46.480;6.834;2023-04-06T04:20:05;3.85;;;1.67;;
48034;SDS011;33812;46.480;6.834;2023-04-06T04:24:07;5.75;;;1.83;;
48034;SDS011;33812;46.480;6.834;2023-04-06T04:28:11;2.15;;;1.20;;
48034;SDS011;33812;46.480;6.834;2023-04-06T04:32:21;4.30;;;1.63;;
48034;SDS011;33812;46.480;6.834;2023-04-06T04:36:24;1.88;;;1.17;;
48034;SDS011;33812;46.480;6.834;2023-04-06T04:40:33;3.50;;;1.33;;
48034;SDS011;33812;46.480;6.834;2023-04-06T04:44:36;7.50;;;1.95;;
48034;SDS011;33812;46.480;6.834;2023-04-06T04:48:40;5.07;;;1.50;;
48034;SDS011;33812;46.480;6.834;2023-04-06T04:52:41;3.78;;;1.35;;
48034;SDS011;33812;46.480;6.834;2023-04-06T04:56:44;7.13;;;2.15;;
48034;SDS011;33812;46.480;6.834;2023-04-06T05:00:48;12.68;;;2.22;;
48034;SDS011;33812;46.480;6.834;2023-04-06T05:04:51;19.02;;;1.90;;
48034;SDS011;33812;46.480;6.834;2023-04-06T05:08:53;5.50;;;1.70;;
48034;SDS011;33812;46.480;6.834;2023-04-06T05:12:55;5.43;;;1.52;;
48034;SDS011;33812;46.480;6.834;2023-04-06T05:17:02;8.05;;;2.03;;
48034;SDS011;33812;46.480;6.834;2023-04-06T05:21:11;16.27;;;3.28;;
48034;SDS011;33812;46.480;6.834;2023-04-06T05:25:14;9.10;;;1.80;;
48034;SDS011;33812;46.480;6.834;2023-04-06T05:29:18;6.18;;;2.00;;
48034;SDS011;33812;46.480;6.834;2023-04-06T05:33:22;13.43;;;2.80;;
48034;SDS011;33812;46.480;6.834;2023-04-06T05:41:28;12.32;;;2.88;;
48034;SDS011;33812;46.480;6.834;2023-04-06T05:45:32;30.17;;;4.05;;
48034;SDS011;33812;46.480;6.834;2023-04-06T05:49:36;11.85;;;3.58;;
48034;SDS011;33812;46.480;6.834;2023-04-06T05:53:38;13.02;;;2.42;;
48034;SDS011;33812;46.480;6.834;2023-04-06T05:57:40;7.45;;;2.00;;
48034;SDS011;33812;46.480;6.834;2023-04-06T06:01:42;2.58;;;1.27;;
48034;SDS011;33812;46.480;6.834;2023-04-06T06:10:01;4.30;;;2.00;;
48034;SDS011;33812;46.480;6.834;2023-04-06T06:14:04;9.02;;;2.72;;
48034;SDS011;33812;46.480;6.834;2023-04-06T06:18:07;3.80;;;2.03;;
48034;SDS011;33812;46.480;6.834;2023-04-06T06:22:10;18.08;;;2.25;;
48034;SDS011;33812;46.480;6.834;2023-04-06T06:26:12;2.75;;;1.55;;
48034;SDS011;33812;46.480;6.834;2023-04-06T06:30:15;10.88;;;2.33;;
48034;SDS011;33812;46.480;6.834;2023-04-06T06:34:17;17.58;;;2.70;;
48034;SDS011;33812;46.480;6.834;2023-04-06T06:38:21;3.13;;;1.73;;
48034;SDS011;33812;46.480;6.834;2023-04-06T06:42:23;3.80;;;1.45;;
48034;SDS011;33812;46.480;6.834;2023-04-06T06:46:26;7.25;;;1.85;;
48034;SDS011;33812;46.480;6.834;2023-04-06T06:50:28;7.88;;;2.38;;
48034;SDS011;33812;46.480;6.834;2023-04-06T06:54:34;7.95;;;2.08;;
48034;SDS011;33812;46.480;6.834;2023-04-06T06:58:36;4.20;;;1.67;;
48034;SDS011;33812;46.480;6.834;2023-04-06T07:02:40;3.92;;;1.60;;
48034;SDS011;33812;46.480;6.834;2023-04-06T07:06:42;12.30;;;2.78;;
48034;SDS011;33812;46.480;6.834;2023-04-06T07:10:46;11.05;;;2.03;;
48034;SDS011;33812;46.480;6.834;2023-04-06T07:14:49;12.70;;;3.10;;
48034;SDS011;33812;46.480;6.834;2023-04-06T07:18:51;7.60;;;2.13;;
48034;SDS011;33812;46.480;6.834;2023-04-06T07:22:53;12.73;;;2.10;;
48034;SDS011;33812;46.480;6.834;2023-04-06T07:26:57;8.05;;;1.88;;
48034;SDS011;33812;46.480;6.834;2023-04-06T07:31:01;2.35;;;1.33;;
48034;SDS011;33812;46.480;6.834;2023-04-06T07:35:04;4.13;;;1.30;;
48034;SDS011;33812;46.480;6.834;2023-04-06T07:39:07;2.47;;;1.33;;
48034;SDS011;33812;46.480;6.834;2023-04-06T07:43:14;5.25;;;1.42;;
48034;SDS011;33812;46.480;6.834;2023-04-06T07:47:19;6.57;;;1.67;;
48034;SDS011;33812;46.480;6.834;2023-04-06T07:51:21;6.03;;;2.08;;
48034;SDS011;33812;46.480;6.834;2023-04-06T07:55:24;7.90;;;2.22;;
48034;SDS011;33812;46.480;6.834;2023-04-06T07:59:27;9.45;;;1.42;;
48034;SDS011;33812;46.480;6.834;2023-04-06T08:03:29;4.05;;;1.42;;
48034;SDS011;33812;46.480;6.834;2023-04-06T08:07:40;13.25;;;2.33;;
48034;SDS011;33812;46.480;6.834;2023-04-06T08:11:42;5.78;;;1.80;;
48034;SDS011;33812;46.480;6.834;2023-04-06T08:15:47;4.38;;;1.58;;
48034;SDS011;33812;46.480;6.834;2023-04-06T08:19:50;6.40;;;1.45;;
48034;SDS011;33812;46.480;6.834;2023-04-06T08:23:52;12.02;;;1.95;;
48034;SDS011;33812;46.480;6.834;2023-04-06T08:27:55;11.63;;;2.00;;
48034;SDS011;33812;46.480;6.834;2023-04-06T08:31:58;9.77;;;1.38;;
48034;SDS011;33812;46.480;6.834;2023-04-06T08:36:06;16.73;;;2.83;;
48034;SDS011;33812;46.480;6.834;2023-04-06T08:40:08;14.93;;;2.35;;
48034;SDS011;33812;46.480;6.834;2023-04-06T08:44:11;6.38;;;1.45;;
48034;SDS011;33812;46.480;6.834;2023-04-06T08:48:16;2.67;;;1.13;;
48034;SDS011;33812;46.480;6.834;2023-04-06T08:52:19;8.43;;;2.65;;
48034;SDS011;33812;46.480;6.834;2023-04-06T08:56:21;4.85;;;1.30;;
48034;SDS011;33812;46.480;6.834;2023-04-06T09:00:30;8.35;;;1.92;;
48034;SDS011;33812;46.480;6.834;2023-04-06T09:04:34;5.72;;;1.38;;
48034;SDS011;33812;46.480;6.834;2023-04-06T09:14:34;5.20;;;1.58;;
48034;SDS011;33812;46.480;6.834;2023-04-06T09:18:37;7.10;;;1.88;;
48034;SDS011;33812;46.480;6.834;2023-04-06T09:22:40;3.72;;;1.15;;
48034;SDS011;33812;46.480;6.834;2023-04-06T09:26:47;5.65;;;1.60;;
48034;SDS011;33812;46.480;6.834;2023-04-06T09:30:51;5.97;;;1.50;;
48034;SDS011;33812;46.480;6.834;2023-04-06T09:34:53;8.32;;;1.90;;
48034;SDS011;33812;46.480;6.834;2023-04-06T09:38:55;7.50;;;2.08;;
48034;SDS011;33812;46.480;6.834;2023-04-06T09:42:59;4.50;;;1.30;;
48034;SDS011;33812;46.480;6.834;2023-04-06T09:47:06;4.95;;;1.20;;
48034;SDS011;33812;46.480;6.834;2023-04-06T09:51:08;1.88;;;1.10;;
48034;SDS011;33812;46.480;6.834;2023-04-06T09:55:17;4.43;;;1.48;;
48034;SDS011;33812;46.480;6.834;2023-04-06T09:59:26;3.05;;;1.40;;
48034;SDS011;33812;46.480;6.834;2023-04-06T10:03:40;3.33;;;1.30;;
48034;SDS011;33812;46.480;6.834;2023-04-06T10:07:47;2.85;;;1.40;;
48034;SDS011;33812;46.480;6.834;2023-04-06T10:15:54;2.25;;;1.13;;
48034;SDS011;33812;46.480;6.834;2023-04-06T10:19:59;3.30;;;1.27;;
48034;SDS011;33812;46.480;6.834;2023-04-06T10:24:08;5.15;;;1.63;;
48034;SDS011;33812;46.480;6.834;2023-04-06T10:28:13;3.28;;;1.15;;
48034;SDS011;33812;46.480;6.834;2023-04-06T10:32:15;6.53;;;1.40;;
48034;SDS011;33812;46.480;6.834;2023-04-06T10:36:22;1.80;;;1.02;;
48034;SDS011;33812;46.480;6.834;2023-04-06T10:40:27;8.27;;;2.08;;
48034;SDS011;33812;46.480;6.834;2023-04-06T10:44:31;3.92;;;1.30;;
48034;SDS011;33812;46.480;6.834;2023-04-06T10:48:45;5.65;;;1.88;;
48034;SDS011;33812;46.480;6.834;2023-04-06T10:52:48;7.18;;;1.83;;
48034;SDS011;33812;46.480;6.834;2023-04-06T10:57:00;2.55;;;1.10;;
48034;SDS011;33812;46.480;6.834;2023-04-06T11:01:02;2.58;;;1.23;;
48034;SDS011;33812;46.480;6.834;2023-04-06T11:05:05;5.15;;;1.13;;
48034;SDS011;33812;46.480;6.834;2023-04-06T11:09:09;8.88;;;2.40;;
48034;SDS011;33812;46.480;6.834;2023-04-06T11:13:11;7.65;;;1.85;;
48034;SDS011;33812;46.480;6.834;2023-04-06T11:17:13;2.25;;;1.13;;
48034;SDS011;33812;46.480;6.834;2023-04-06T11:21:15;5.88;;;1.75;;
48034;SDS011;33812;46.480;6.834;2023-04-06T11:25:19;3.47;;;0.95;;
48034;SDS011;33812;46.480;6.834;2023-04-06T11:29:21;1.75;;;0.95;;
48034;SDS011;33812;46.480;6.834;2023-04-06T11:33:24;2.50;;;1.00;;
48034;SDS011;33812;46.480;6.834;2023-04-06T11:37:27;2.65;;;1.10;;
48034;SDS011;33812;46.480;6.834;2023-04-06T11:41:30;4.10;;;1.40;;
48034;SDS011;33812;46.480;6.834;2023-04-06T11:45:39;3.08;;;1.30;;
48034;SDS011;33812;46.480;6.834;2023-04-06T11:49:44;4.50;;;1.50;;
48034;SDS011;33812;46.480;6.834;2023-04-06T11:57:50;4.45;;;1.38;;
48034;SDS011;33812;46.480;6.834;2023-04-06T12:01:52;4.22;;;1.40;;
48034;SDS011;33812;46.480;6.834;2023-04-06T12:05:54;7.07;;;1.90;;
48034;SDS011;33812;46.480;6.834;2023-04-06T12:09:56;2.45;;;1.05;;
48034;SDS011;33812;46.480;6.834;2023-04-06T12:14:01;2.45;;;1.13;;
48034;SDS011;33812;46.480;6.834;2023-04-06T12:22:06;2.17;;;1.00;;
48034;SDS011;33812;46.480;6.834;2023-04-06T12:26:08;5.35;;;1.08;;
48034;SDS011;33812;46.480;6.834;2023-04-06T12:30:12;3.28;;;1.10;;
48034;SDS011;33812;46.480;6.834;2023-04-06T12:34:14;4.63;;;1.52;;
48034;SDS011;33812;46.480;6.834;2023-04-06T12:38:16;2.67;;;1.30;;
48034;SDS011;33812;46.480;6.834;2023-04-06T12:42:18;4.43;;;1.52;;
48034;SDS011;33812;46.480;6.834;2023-04-06T12:46:21;4.35;;;1.50;;
48034;SDS011;33812;46.480;6.834;2023-04-06T12:50:24;3.67;;;1.30;;
48034;SDS011;33812;46.480;6.834;2023-04-06T12:54:27;4.05;;;1.38;;
48034;SDS011;33812;46.480;6.834;2023-04-06T12:58:29;3.42;;;1.35;;
48034;SDS011;33812;46.480;6.834;2023-04-06T13:02:33;6.20;;;1.65;;
48034;SDS011;33812;46.480;6.834;2023-04-06T13:06:35;1.40;;;1.00;;
48034;SDS011;33812;46.480;6.834;2023-04-06T13:10:37;3.60;;;1.40;;
48034;SDS011;33812;46.480;6.834;2023-04-06T13:14:39;3.97;;;1.00;;
48034;SDS011;33812;46.480;6.834;2023-04-06T13:18:42;3.47;;;1.27;;
48034;SDS011;33812;46.480;6.834;2023-04-06T13:22:45;3.88;;;1.25;;
48034;SDS011;33812;46.480;6.834;2023-04-06T13:26:47;5.03;;;1.50;;
48034;SDS011;33812;46.480;6.834;2023-04-06T13:30:49;4.60;;;1.40;;
48034;SDS011;33812;46.480;6.834;2023-04-06T13:34:55;7.28;;;1.83;;
48034;SDS011;33812;46.480;6.834;2023-04-06T13:38:57;6.05;;;1.73;;
48034;SDS011;33812;46.480;6.834;2023-04-06T13:42:59;5.63;;;1.77;;
48034;SDS011;33812;46.480;6.834;2023-04-06T13:47:00;3.42;;;1.23;;
48034;SDS011;33812;46.480;6.834;2023-04-06T13:56:12;4.88;;;1.60;;
48034;SDS011;33812;46.480;6.834;2023-04-06T14:00:14;3.22;;;1.17;;
48034;SDS011;33812;46.480;6.834;2023-04-06T14:04:17;1.55;;;0.82;;
48034;SDS011;33812;46.480;6.834;2023-04-06T14:08:18;1.73;;;1.00;;
48034;SDS011;33812;46.480;6.834;2023-04-06T14:12:22;1.20;;;0.80;;
48034;SDS011;33812;46.480;6.834;2023-04-06T14:16:24;5.13;;;1.50;;
48034;SDS011;33812;46.480;6.834;2023-04-06T14:20:26;2.17;;;0.82;;
48034;SDS011;33812;46.480;6.834;2023-04-06T14:24:28;0.80;;;0.70;;
48034;SDS011;33812;46.480;6.834;2023-04-06T14:28:31;3.70;;;1.30;;
48034;SDS011;33812;46.480;6.834;2023-04-06T14:32:34;5.78;;;1.55;;
48034;SDS011;33812;46.480;6.834;2023-04-06T14:36:36;2.28;;;1.00;;
48034;SDS011;33812;46.480;6.834;2023-04-06T14:40:38;11.32;;;2.63;;
48034;SDS011;33812;46.480;6.834;2023-04-06T14:44:41;1.55;;;0.90;;
48034;SDS011;33812;46.480;6.834;2023-04-06T14:48:47;7.15;;;1.85;;
48034;SDS011;33812;46.480;6.834;2023-04-06T14:52:49;5.28;;;1.63;;
48034;SDS011;33812;46.480;6.834;2023-04-06T14:56:51;6.07;;;1.73;;
48034;SDS011;33812;46.480;6.834;2023-04-06T15:00:56;5.72;;;1.60;;
48034;SDS011;33812;46.480;6.834;2023-04-06T15:04:59;6.03;;;1.55;;
48034;SDS011;33812;46.480;6.834;2023-04-06T15:09:01;4.65;;;1.30;;
48034;SDS011;33812;46.480;6.834;2023-04-06T15:13:03;4.30;;;1.35;;
48034;SDS011;33812;46.480;6.834;2023-04-06T15:17:07;4.50;;;1.50;;
48034;SDS011;33812;46.480;6.834;2023-04-06T15:21:09;3.58;;;1.20;;
48034;SDS011;33812;46.480;6.834;2023-04-06T15:25:11;11.20;;;1.60;;
48034;SDS011;33812;46.480;6.834;2023-04-06T15:29:13;11.05;;;1.55;;
48034;SDS011;33812;46.480;6.834;2023-04-06T15:33:17;9.02;;;1.45;;
48034;SDS011;33812;46.480;6.834;2023-04-06T15:37:21;7.68;;;1.50;;
48034;SDS011;33812;46.480;6.834;2023-04-06T15:41:40;11.68;;;1.75;;
48034;SDS011;33812;46.480;6.834;2023-04-06T15:45:43;6.78;;;1.20;;
48034;SDS011;33812;46.480;6.834;2023-04-06T15:49:59;7.45;;;1.17;;
48034;SDS011;33812;46.480;6.834;2023-04-06T15:54:01;5.68;;;1.45;;
48034;SDS011;33812;46.480;6.834;2023-04-06T15:58:03;9.32;;;2.63;;
48034;SDS011;33812;46.480;6.834;2023-04-06T16:02:06;7.05;;;1.67;;
48034;SDS011;33812;46.480;6.834;2023-04-06T16:06:27;10.55;;;1.45;;
48034;SDS011;33812;46.480;6.834;2023-04-06T16:10:31;9.95;;;1.15;;
48034;SDS011;33812;46.480;6.834;2023-04-06T16:14:35;20.80;;;2.58;;
48034;SDS011;33812;46.480;6.834;2023-04-06T16:22:50;18.92;;;3.38;;
48034;SDS011;33812;46.480;6.834;2023-04-06T16:26:53;12.23;;;2.10;;
48034;SDS011;33812;46.480;6.834;2023-04-06T16:30:57;9.60;;;1.90;;
48034;SDS011;33812;46.480;6.834;2023-04-06T16:34:59;12.95;;;2.50;;
48034;SDS011;33812;46.480;6.834;2023-04-06T16:39:05;6.90;;;1.65;;
48034;SDS011;33812;46.480;6.834;2023-04-06T16:51:18;5.53;;;1.23;;
48034;SDS011;33812;46.480;6.834;2023-04-06T16:55:23;7.05;;;1.80;;
48034;SDS011;33812;46.480;6.834;2023-04-06T16:59:25;11.07;;;1.20;;
48034;SDS011;33812;46.480;6.834;2023-04-06T17:03:27;9.63;;;1.80;;
48034;SDS011;33812;46.480;6.834;2023-04-06T17:07:30;9.57;;;1.98;;
48034;SDS011;33812;46.480;6.834;2023-04-06T17:11:36;22.60;;;4.40;;
48034;SDS011;33812;46.480;6.834;2023-04-06T17:15:37;23.83;;;6.22;;
48034;SDS011;33812;46.480;6.834;2023-04-06T17:19:41;37.30;;;9.05;;
48034;SDS011;33812;46.480;6.834;2023-04-06T17:23:44;23.88;;;6.55;;
48034;SDS011;33812;46.480;6.834;2023-04-06T17:27:48;31.25;;;7.85;;
48034;SDS011;33812;46.480;6.834;2023-04-06T17:31:52;35.20;;;8.10;;
48034;SDS011;33812;46.480;6.834;2023-04-06T17:35:54;29.42;;;6.68;;
48034;SDS011;33812;46.480;6.834;2023-04-06T17:39:56;20.77;;;5.32;;
48034;SDS011;33812;46.480;6.834;2023-04-06T17:43:59;24.98;;;7.18;;
48034;SDS011;33812;46.480;6.834;2023-04-06T17:48:16;19.92;;;4.55;;
48034;SDS011;33812;46.480;6.834;2023-04-06T17:52:20;15.50;;;3.90;;
48034;SDS011;33812;46.480;6.834;2023-04-06T17:56:23;20.55;;;4.45;;
48034;SDS011;33812;46.480;6.834;2023-04-06T18:00:27;21.70;;;4.80;;
48034;SDS011;33812;46.480;6.834;2023-04-06T18:04:36;25.88;;;4.07;;
48034;SDS011;33812;46.480;6.834;2023-04-06T18:08:39;16.17;;;3.17;;
48034;SDS011;33812;46.480;6.834;2023-04-06T18:16:52;20.70;;;4.70;;
48034;SDS011;33812;46.480;6.834;2023-04-06T18:20:53;20.35;;;3.97;;
48034;SDS011;33812;46.480;6.834;2023-04-06T18:24:59;14.67;;;3.60;;
48034;SDS011;33812;46.480;6.834;2023-04-06T18:29:02;16.60;;;3.63;;
48034;SDS011;33812;46.480;6.834;2023-04-06T18:33:05;28.15;;;3.60;;
48034;SDS011;33812;46.480;6.834;2023-04-06T18:37:07;21.30;;;4.80;;
48034;SDS011;33812;46.480;6.834;2023-04-06T18:41:17;11.45;;;3.13;;
48034;SDS011;33812;46.480;6.834;2023-04-06T18:45:25;13.40;;;3.25;;
48034;SDS011;33812;46.480;6.834;2023-04-06T18:49:39;17.02;;;4.00;;
48034;SDS011;33812;46.480;6.834;2023-04-06T18:53:41;23.20;;;4.10;;
48034;SDS011;33812;46.480;6.834;2023-04-06T18:57:47;19.33;;;3.92;;
48034;SDS011;33812;46.480;6.834;2023-04-06T19:01:51;18.98;;;3.25;;
48034;SDS011;33812;46.480;6.834;2023-04-06T19:05:57;14.25;;;3.83;;
48034;SDS011;33812;46.480;6.834;2023-04-06T19:10:07;9.43;;;2.90;;
48034;SDS011;33812;46.480;6.834;2023-04-06T19:14:11;12.02;;;3.20;;
48034;SDS011;33812;46.480;6.834;2023-04-06T19:18:25;14.45;;;3.38;;
48034;SDS011;33812;46.480;6.834;2023-04-06T19:22:30;17.65;;;3.97;;
48034;SDS011;33812;46.480;6.834;2023-04-06T19:26:41;12.45;;;3.72;;
48034;SDS011;33812;46.480;6.834;2023-04-06T19:30:52;7.85;;;2.78;;
48034;SDS011;33812;46.480;6.834;2023-04-06T19:35:00;7.35;;;2.38;;
48034;SDS011;33812;46.480;6.834;2023-04-06T19:39:15;14.45;;;2.92;;
48034;SDS011;33812;46.480;6.834;2023-04-06T19:43:28;8.10;;;2.92;;
48034;SDS011;33812;46.480;6.834;2023-04-06T19:51:42;11.02;;;2.85;;
48034;SDS011;33812;46.480;6.834;2023-04-06T19:55:46;7.22;;;2.58;;
48034;SDS011;33812;46.480;6.834;2023-04-06T20:00:01;15.40;;;2.47;;
48034;SDS011;33812;46.480;6.834;2023-04-06T20:04:12;14.88;;;3.00;;
48034;SDS011;33812;46.480;6.834;2023-04-06T20:12:42;13.00;;;3.20;;
48034;SDS011;33812;46.480;6.834;2023-04-06T20:16:51;8.13;;;2.50;;
48034;SDS011;33812;46.480;6.834;2023-04-06T20:20:54;8.18;;;2.08;;
48034;SDS011;33812;46.480;6.834;2023-04-06T20:24:57;8.95;;;2.45;;
48034;SDS011;33812;46.480;6.834;2023-04-06T20:33:22;12.52;;;3.38;;
48034;SDS011;33812;46.480;6.834;2023-04-06T20:37:24;10.63;;;3.15;;
48034;SDS011;33812;46.480;6.834;2023-04-06T20:41:26;11.90;;;1.70;;
48034;SDS011;33812;46.480;6.834;2023-04-06T20:45:35;13.32;;;3.70;;
48034;SDS011;33812;46.480;6.834;2023-04-06T20:49:40;8.30;;;3.67;;
48034;SDS011;33812;46.480;6.834;2023-04-06T20:53:42;5.78;;;2.10;;
48034;SDS011;33812;46.480;6.834;2023-04-06T20:57:45;6.72;;;1.85;;
48034;SDS011;33812;46.480;6.834;2023-04-06T21:01:48;8.95;;;2.13;;
48034;SDS011;33812;46.480;6.834;2023-04-06T21:05:50;12.40;;;1.88;;
48034;SDS011;33812;46.480;6.834;2023-04-06T21:09:53;5.68;;;1.70;;
48034;SDS011;33812;46.480;6.834;2023-04-06T21:13:55;10.43;;;2.35;;
48034;SDS011;33812;46.480;6.834;2023-04-06T21:18:05;9.05;;;2.30;;
48034;SDS011;33812;46.480;6.834;2023-04-06T21:22:07;8.32;;;2.40;;
48034;SDS011;33812;46.480;6.834;2023-04-06T21:26:16;10.15;;;2.65;;
48034;SDS011;33812;46.480;6.834;2023-04-06T21:30:18;11.40;;;3.15;;
48034;SDS011;33812;46.480;6.834;2023-04-06T21:34:23;7.07;;;2.30;;
48034;SDS011;33812;46.480;6.834;2023-04-06T21:38:28;8.10;;;2.05;;
48034;SDS011;33812;46.480;6.834;2023-04-06T21:42:30;17.58;;;2.72;;
48034;SDS011;33812;46.480;6.834;2023-04-06T21:46:34;6.03;;;1.80;;
48034;SDS011;33812;46.480;6.834;2023-04-06T21:54:43;7.28;;;1.90;;
48034;SDS011;33812;46.480;6.834;2023-04-06T21:58:51;6.30;;;1.95;;
48034;SDS011;33812;46.480;6.834;2023-04-06T22:02:53;13.75;;;2.67;;
48034;SDS011;33812;46.480;6.834;2023-04-06T22:06:58;12.55;;;2.55;;
48034;SDS011;33812;46.480;6.834;2023-04-06T22:11:04;8.25;;;2.00;;
48034;SDS011;33812;46.480;6.834;2023-04-06T22:15:08;9.88;;;2.05;;
48034;SDS011;33812;46.480;6.834;2023-04-06T22:19:12;7.43;;;2.00;;
48034;SDS011;33812;46.480;6.834;2023-04-06T22:23:16;3.67;;;1.38;;
48034;SDS011;33812;46.480;6.834;2023-04-06T22:27:17;6.45;;;1.60;;
48034;SDS011;33812;46.480;6.834;2023-04-06T22:31:20;4.47;;;1.27;;
48034;SDS011;33812;46.480;6.834;2023-04-06T22:35:23;6.85;;;1.67;;
48034;SDS011;33812;46.480;6.834;2023-04-06T22:39:27;6.30;;;1.63;;
48034;SDS011;33812;46.480;6.834;2023-04-06T22:43:30;4.82;;;1.45;;
48034;SDS011;33812;46.480;6.834;2023-04-06T22:47:33;6.60;;;1.98;;
48034;SDS011;33812;46.480;6.834;2023-04-06T22:51:34;8.38;;;2.20;;
48034;SDS011;33812;46.480;6.834;2023-04-06T22:55:39;12.85;;;2.63;;
48034;SDS011;33812;46.480;6.834;2023-04-06T22:59:41;19.75;;;2.78;;
48034;SDS011;33812;46.480;6.834;2023-04-06T23:03:43;6.30;;;1.75;;
48034;SDS011;33812;46.480;6.834;2023-04-06T23:07:46;6.97;;;1.77;;
48034;SDS011;33812;46.480;6.834;2023-04-06T23:11:52;14.48;;;2.47;;
48034;SDS011;33812;46.480;6.834;2023-04-06T23:15:54;7.75;;;1.83;;
48034;SDS011;33812;46.480;6.834;2023-04-06T23:19:56;10.13;;;2.15;;
48034;SDS011;33812;46.480;6.834;2023-04-06T23:24:04;4.68;;;1.23;;
48034;SDS011;33812;46.480;6.834;2023-04-06T23:28:07;4.40;;;1.23;;
48034;SDS011;33812;46.480;6.834;2023-04-06T23:32:09;9.38;;;2.22;;
48034;SDS011;33812;46.480;6.834;2023-04-06T23:36:18;5.18;;;1.40;;
48034;SDS011;33812;46.480;6.834;2023-04-06T23:44:29;6.53;;;1.67;;
48034;SDS011;33812;46.480;6.834;2023-04-06T23:48:31;3.42;;;1.27;;
48034;SDS011;33812;46.480;6.834;2023-04-06T23:52:33;6.00;;;1.60;;
48034;SDS011;33812;46.480;6.834;2023-04-06T23:56:35;4.80;;;1.45;;
